sensor_id;sensor_type;location;lat;lon;timestamp;P1;durP1;ratioP1;P2;durP2;ratioP2
32812;SDS011;19162;48.254;11.454;2023-05-07T00:00:39;9.55;;;8.65;;
32812;SDS011;19162;48.254;11.454;2023-05-07T00:03:40;9.45;;;8.43;;
32812;SDS011;19162;48.254;11.454;2023-05-07T00:06:40;10.03;;;9.17;;
32812;SDS011;19162;48.254;11.454;2023-05-07T00:09:40;9.35;;;8.35;;
32812;SDS011;19162;48.254;11.454;2023-05-07T00:12:40;8.68;;;7.88;;
32812;SDS011;19162;48.254;11.454;2023-05-07T00:15:41;11.30;;;8.07;;
32812;SDS011;19162;48.254;11.454;2023-05-07T00:18:41;9.67;;;8.13;;
32812;SDS011;19162;48.254;11.454;2023-05-07T00:21:41;8.88;;;8.07;;
32812;SDS011;19162;48.254;11.454;2023-05-07T00:24:41;8.98;;;8.18;;
32812;SDS011;19162;48.254;11.454;2023-05-07T00:27:42;9.13;;;8.32;;
32812;SDS011;19162;48.254;11.454;2023-05-07T00:30:42;9.50;;;8.70;;
32812;SDS011;19162;48.254;11.454;2023-05-07T00:33:42;8.98;;;8.18;;
32812;SDS011;19162;48.254;11.454;2023-05-07T00:36:42;9.05;;;8.13;;
32812;SDS011;19162;48.254;11.454;2023-05-07T00:39:42;8.48;;;7.68;;
32812;SDS011;19162;48.254;11.454;2023-05-07T00:42:43;8.40;;;7.32;;
32812;SDS011;19162;48.254;11.454;2023-05-07T00:45:46;7.82;;;7.25;;
32812;SDS011;19162;48.254;11.454;2023-05-07T00:48:47;7.73;;;6.93;;
32812;SDS011;19162;48.254;11.454;2023-05-07T00:51:47;7.85;;;7.13;;
32812;SDS011;19162;48.254;11.454;2023-05-07T00:54:48;7.85;;;7.15;;
32812;SDS011;19162;48.254;11.454;2023-05-07T00:57:48;7.87;;;7.00;;
32812;SDS011;19162;48.254;11.454;2023-05-07T01:00:49;7.07;;;6.40;;
32812;SDS011;19162;48.254;11.454;2023-05-07T01:03:49;7.53;;;6.93;;
32812;SDS011;19162;48.254;11.454;2023-05-07T01:06:51;7.97;;;7.28;;
32812;SDS011;19162;48.254;11.454;2023-05-07T01:09:52;8.80;;;7.90;;
32812;SDS011;19162;48.254;11.454;2023-05-07T01:12:52;7.70;;;7.00;;
32812;SDS011;19162;48.254;11.454;2023-05-07T01:15:53;9.60;;;6.60;;
32812;SDS011;19162;48.254;11.454;2023-05-07T01:18:53;7.93;;;7.23;;
32812;SDS011;19162;48.254;11.454;2023-05-07T01:21:54;7.95;;;7.15;;
32812;SDS011;19162;48.254;11.454;2023-05-07T01:24:58;6.43;;;5.93;;
32812;SDS011;19162;48.254;11.454;2023-05-07T01:27:59;7.10;;;6.55;;
32812;SDS011;19162;48.254;11.454;2023-05-07T01:31:01;7.30;;;6.70;;
32812;SDS011;19162;48.254;11.454;2023-05-07T01:34:02;6.72;;;6.25;;
32812;SDS011;19162;48.254;11.454;2023-05-07T01:37:04;7.60;;;7.00;;
32812;SDS011;19162;48.254;11.454;2023-05-07T01:40:05;7.10;;;6.60;;
32812;SDS011;19162;48.254;11.454;2023-05-07T01:43:05;7.07;;;6.47;;
32812;SDS011;19162;48.254;11.454;2023-05-07T01:46:06;7.03;;;6.43;;
32812;SDS011;19162;48.254;11.454;2023-05-07T01:49:07;6.63;;;6.13;;
32812;SDS011;19162;48.254;11.454;2023-05-07T01:52:07;7.47;;;6.33;;
32812;SDS011;19162;48.254;11.454;2023-05-07T01:55:08;7.25;;;6.60;;
32812;SDS011;19162;48.254;11.454;2023-05-07T01:58:08;7.00;;;6.28;;
32812;SDS011;19162;48.254;11.454;2023-05-07T02:01:08;7.47;;;6.67;;
32812;SDS011;19162;48.254;11.454;2023-05-07T02:04:08;6.57;;;6.00;;
32812;SDS011;19162;48.254;11.454;2023-05-07T02:07:09;6.53;;;6.03;;
32812;SDS011;19162;48.254;11.454;2023-05-07T02:10:10;6.32;;;5.82;;
32812;SDS011;19162;48.254;11.454;2023-05-07T02:13:10;6.90;;;6.40;;
32812;SDS011;19162;48.254;11.454;2023-05-07T02:16:10;5.80;;;5.40;;
32812;SDS011;19162;48.254;11.454;2023-05-07T02:19:10;7.03;;;6.43;;
32812;SDS011;19162;48.254;11.454;2023-05-07T02:22:10;6.53;;;5.95;;
32812;SDS011;19162;48.254;11.454;2023-05-07T02:25:11;5.87;;;5.37;;
32812;SDS011;19162;48.254;11.454;2023-05-07T02:28:11;6.35;;;5.60;;
32812;SDS011;19162;48.254;11.454;2023-05-07T02:31:11;6.63;;;6.13;;
32812;SDS011;19162;48.254;11.454;2023-05-07T02:34:11;7.37;;;6.10;;
32812;SDS011;19162;48.254;11.454;2023-05-07T02:37:11;6.15;;;5.75;;
32812;SDS011;19162;48.254;11.454;2023-05-07T02:40:12;6.30;;;5.72;;
32812;SDS011;19162;48.254;11.454;2023-05-07T02:43:12;5.80;;;5.40;;
32812;SDS011;19162;48.254;11.454;2023-05-07T02:46:12;5.77;;;5.27;;
32812;SDS011;19162;48.254;11.454;2023-05-07T02:49:12;6.47;;;5.97;;
32812;SDS011;19162;48.254;11.454;2023-05-07T02:52:12;6.20;;;5.70;;
32812;SDS011;19162;48.254;11.454;2023-05-07T02:55:13;5.80;;;5.40;;
32812;SDS011;19162;48.254;11.454;2023-05-07T02:58:13;6.85;;;5.68;;
32812;SDS011;19162;48.254;11.454;2023-05-07T03:01:13;7.13;;;6.07;;
32812;SDS011;19162;48.254;11.454;2023-05-07T03:04:13;5.93;;;5.45;;
32812;SDS011;19162;48.254;11.454;2023-05-07T03:07:14;6.60;;;6.10;;
32812;SDS011;19162;48.254;11.454;2023-05-07T03:10:14;6.20;;;5.78;;
32812;SDS011;19162;48.254;11.454;2023-05-07T03:13:15;6.65;;;6.10;;
32812;SDS011;19162;48.254;11.454;2023-05-07T03:16:15;6.37;;;5.87;;
32812;SDS011;19162;48.254;11.454;2023-05-07T03:19:15;6.73;;;6.13;;
32812;SDS011;19162;48.254;11.454;2023-05-07T03:22:15;6.23;;;5.73;;
32812;SDS011;19162;48.254;11.454;2023-05-07T03:25:15;5.97;;;5.57;;
32812;SDS011;19162;48.254;11.454;2023-05-07T03:28:16;7.28;;;5.82;;
32812;SDS011;19162;48.254;11.454;2023-05-07T03:31:16;5.75;;;5.38;;
32812;SDS011;19162;48.254;11.454;2023-05-07T03:34:16;6.25;;;5.72;;
32812;SDS011;19162;48.254;11.454;2023-05-07T03:37:21;6.30;;;5.78;;
32812;SDS011;19162;48.254;11.454;2023-05-07T03:40:22;7.47;;;6.43;;
32812;SDS011;19162;48.254;11.454;2023-05-07T03:43:22;6.88;;;6.35;;
32812;SDS011;19162;48.254;11.454;2023-05-07T03:46:22;7.60;;;6.95;;
32812;SDS011;19162;48.254;11.454;2023-05-07T03:49:22;5.80;;;5.40;;
32812;SDS011;19162;48.254;11.454;2023-05-07T03:52:22;7.47;;;6.80;;
32812;SDS011;19162;48.254;11.454;2023-05-07T03:55:25;10.68;;;6.18;;
32812;SDS011;19162;48.254;11.454;2023-05-07T03:58:26;6.93;;;6.38;;
32812;SDS011;19162;48.254;11.454;2023-05-07T04:01:26;6.67;;;6.17;;
32812;SDS011;19162;48.254;11.454;2023-05-07T04:04:27;6.07;;;5.60;;
32812;SDS011;19162;48.254;11.454;2023-05-07T04:07:27;7.90;;;6.60;;
32812;SDS011;19162;48.254;11.454;2023-05-07T04:10:28;7.45;;;5.82;;
32812;SDS011;19162;48.254;11.454;2023-05-07T04:13:29;6.28;;;5.68;;
32812;SDS011;19162;48.254;11.454;2023-05-07T04:16:29;7.15;;;6.55;;
32812;SDS011;19162;48.254;11.454;2023-05-07T04:19:30;6.73;;;6.23;;
32812;SDS011;19162;48.254;11.454;2023-05-07T04:22:30;6.88;;;6.35;;
32812;SDS011;19162;48.254;11.454;2023-05-07T04:25:30;6.97;;;6.45;;
32812;SDS011;19162;48.254;11.454;2023-05-07T04:28:30;7.43;;;6.73;;
32812;SDS011;19162;48.254;11.454;2023-05-07T04:31:30;6.95;;;6.25;;
32812;SDS011;19162;48.254;11.454;2023-05-07T04:34:31;7.28;;;6.68;;
32812;SDS011;19162;48.254;11.454;2023-05-07T04:37:32;6.55;;;6.05;;
32812;SDS011;19162;48.254;11.454;2023-05-07T04:40:32;7.28;;;6.60;;
32812;SDS011;19162;48.254;11.454;2023-05-07T04:43:32;7.38;;;6.70;;
32812;SDS011;19162;48.254;11.454;2023-05-07T04:46:32;7.87;;;7.00;;
32812;SDS011;19162;48.254;11.454;2023-05-07T04:49:33;7.33;;;5.70;;
32812;SDS011;19162;48.254;11.454;2023-05-07T04:52:33;7.13;;;5.70;;
32812;SDS011;19162;48.254;11.454;2023-05-07T04:55:33;6.80;;;6.20;;
32812;SDS011;19162;48.254;11.454;2023-05-07T04:58:33;7.88;;;7.15;;
32812;SDS011;19162;48.254;11.454;2023-05-07T05:01:33;9.17;;;8.33;;
32812;SDS011;19162;48.254;11.454;2023-05-07T05:04:34;7.90;;;7.20;;
32812;SDS011;19162;48.254;11.454;2023-05-07T05:07:34;8.00;;;7.22;;
32812;SDS011;19162;48.254;11.454;2023-05-07T05:10:34;7.47;;;6.97;;
32812;SDS011;19162;48.254;11.454;2023-05-07T05:13:35;8.68;;;7.93;;
32812;SDS011;19162;48.254;11.454;2023-05-07T05:16:35;7.40;;;6.72;;
32812;SDS011;19162;48.254;11.454;2023-05-07T05:19:35;8.02;;;7.43;;
32812;SDS011;19162;48.254;11.454;2023-05-07T05:22:35;7.95;;;7.45;;
32812;SDS011;19162;48.254;11.454;2023-05-07T05:25:36;8.33;;;7.80;;
32812;SDS011;19162;48.254;11.454;2023-05-07T05:28:37;9.07;;;7.35;;
32812;SDS011;19162;48.254;11.454;2023-05-07T05:31:37;9.75;;;8.13;;
32812;SDS011;19162;48.254;11.454;2023-05-07T05:34:37;8.90;;;8.23;;
32812;SDS011;19162;48.254;11.454;2023-05-07T05:37:37;8.38;;;7.78;;
32812;SDS011;19162;48.254;11.454;2023-05-07T05:40:37;8.03;;;7.27;;
32812;SDS011;19162;48.254;11.454;2023-05-07T05:43:38;8.52;;;7.72;;
32812;SDS011;19162;48.254;11.454;2023-05-07T05:46:38;8.05;;;7.50;;
32812;SDS011;19162;48.254;11.454;2023-05-07T05:49:38;9.30;;;8.50;;
32812;SDS011;19162;48.254;11.454;2023-05-07T05:52:38;8.87;;;8.10;;
32812;SDS011;19162;48.254;11.454;2023-05-07T05:55:38;8.77;;;7.53;;
32812;SDS011;19162;48.254;11.454;2023-05-07T05:58:39;9.60;;;8.90;;
32812;SDS011;19162;48.254;11.454;2023-05-07T06:01:39;9.05;;;8.40;;
32812;SDS011;19162;48.254;11.454;2023-05-07T06:04:39;8.47;;;7.87;;
32812;SDS011;19162;48.254;11.454;2023-05-07T06:07:39;9.32;;;8.63;;
32812;SDS011;19162;48.254;11.454;2023-05-07T06:10:40;8.50;;;7.90;;
32812;SDS011;19162;48.254;11.454;2023-05-07T06:13:40;9.17;;;8.20;;
32812;SDS011;19162;48.254;11.454;2023-05-07T06:16:40;8.10;;;7.50;;
32812;SDS011;19162;48.254;11.454;2023-05-07T06:19:40;9.32;;;8.65;;
32812;SDS011;19162;48.254;11.454;2023-05-07T06:22:40;8.85;;;8.13;;
32812;SDS011;19162;48.254;11.454;2023-05-07T06:25:41;9.15;;;8.35;;
32812;SDS011;19162;48.254;11.454;2023-05-07T06:28:41;9.25;;;8.50;;
32812;SDS011;19162;48.254;11.454;2023-05-07T06:31:41;9.45;;;8.55;;
32812;SDS011;19162;48.254;11.454;2023-05-07T06:34:41;9.13;;;8.33;;
32812;SDS011;19162;48.254;11.454;2023-05-07T06:37:41;8.63;;;8.03;;
32812;SDS011;19162;48.254;11.454;2023-05-07T06:40:42;8.52;;;7.72;;
32812;SDS011;19162;48.254;11.454;2023-05-07T06:43:42;8.38;;;7.70;;
32812;SDS011;19162;48.254;11.454;2023-05-07T06:46:43;8.95;;;8.15;;
32812;SDS011;19162;48.254;11.454;2023-05-07T06:49:43;7.50;;;7.00;;
32812;SDS011;19162;48.254;11.454;2023-05-07T06:52:43;7.70;;;7.20;;
32812;SDS011;19162;48.254;11.454;2023-05-07T06:55:43;7.43;;;6.78;;
32812;SDS011;19162;48.254;11.454;2023-05-07T06:58:43;7.65;;;7.03;;
32812;SDS011;19162;48.254;11.454;2023-05-07T07:01:43;8.00;;;7.28;;
32812;SDS011;19162;48.254;11.454;2023-05-07T07:04:44;6.88;;;6.28;;
32812;SDS011;19162;48.254;11.454;2023-05-07T07:07:45;6.95;;;6.35;;
32812;SDS011;19162;48.254;11.454;2023-05-07T07:10:52;6.72;;;6.10;;
32812;SDS011;19162;48.254;11.454;2023-05-07T07:13:52;6.17;;;5.67;;
32812;SDS011;19162;48.254;11.454;2023-05-07T07:16:54;7.00;;;6.47;;
32812;SDS011;19162;48.254;11.454;2023-05-07T07:19:54;6.47;;;5.97;;
32812;SDS011;19162;48.254;11.454;2023-05-07T07:22:54;5.88;;;5.47;;
32812;SDS011;19162;48.254;11.454;2023-05-07T07:25:55;6.22;;;5.63;;
32812;SDS011;19162;48.254;11.454;2023-05-07T07:28:55;6.77;;;6.17;;
32812;SDS011;19162;48.254;11.454;2023-05-07T07:31:55;6.90;;;6.28;;
32812;SDS011;19162;48.254;11.454;2023-05-07T07:34:56;7.22;;;6.53;;
32812;SDS011;19162;48.254;11.454;2023-05-07T07:37:56;6.47;;;5.97;;
32812;SDS011;19162;48.254;11.454;2023-05-07T07:40:56;6.75;;;6.25;;
32812;SDS011;19162;48.254;11.454;2023-05-07T07:43:56;6.72;;;6.22;;
32812;SDS011;19162;48.254;11.454;2023-05-07T07:46:56;6.43;;;5.90;;
32812;SDS011;19162;48.254;11.454;2023-05-07T07:49:57;8.85;;;6.47;;
32812;SDS011;19162;48.254;11.454;2023-05-07T07:52:57;6.38;;;5.80;;
32812;SDS011;19162;48.254;11.454;2023-05-07T07:55:57;5.82;;;5.32;;
32812;SDS011;19162;48.254;11.454;2023-05-07T07:58:57;5.80;;;5.40;;
32812;SDS011;19162;48.254;11.454;2023-05-07T08:01:57;5.82;;;5.40;;
32812;SDS011;19162;48.254;11.454;2023-05-07T08:04:57;6.20;;;5.60;;
32812;SDS011;19162;48.254;11.454;2023-05-07T08:07:58;5.93;;;5.40;;
32812;SDS011;19162;48.254;11.454;2023-05-07T08:10:58;5.93;;;5.38;;
32812;SDS011;19162;48.254;11.454;2023-05-07T08:13:58;5.80;;;5.27;;
32812;SDS011;19162;48.254;11.454;2023-05-07T08:16:58;5.50;;;5.00;;
32812;SDS011;19162;48.254;11.454;2023-05-07T08:19:59;5.13;;;4.70;;
32812;SDS011;19162;48.254;11.454;2023-05-07T08:22:59;5.70;;;5.13;;
32812;SDS011;19162;48.254;11.454;2023-05-07T08:25:59;6.33;;;5.83;;
32812;SDS011;19162;48.254;11.454;2023-05-07T08:29:00;6.50;;;6.00;;
32812;SDS011;19162;48.254;11.454;2023-05-07T08:32:00;5.47;;;5.07;;
32812;SDS011;19162;48.254;11.454;2023-05-07T08:35:00;6.47;;;5.18;;
32812;SDS011;19162;48.254;11.454;2023-05-07T08:38:00;5.03;;;4.73;;
32812;SDS011;19162;48.254;11.454;2023-05-07T08:41:01;5.30;;;4.90;;
32812;SDS011;19162;48.254;11.454;2023-05-07T08:44:01;5.93;;;5.43;;
32812;SDS011;19162;48.254;11.454;2023-05-07T08:47:02;5.78;;;5.28;;
32812;SDS011;19162;48.254;11.454;2023-05-07T08:50:06;5.85;;;5.38;;
32812;SDS011;19162;48.254;11.454;2023-05-07T08:53:06;5.47;;;5.03;;
32812;SDS011;19162;48.254;11.454;2023-05-07T08:56:08;5.60;;;5.07;;
32812;SDS011;19162;48.254;11.454;2023-05-07T08:59:08;4.53;;;4.22;;
32812;SDS011;19162;48.254;11.454;2023-05-07T09:02:08;5.20;;;4.80;;
32812;SDS011;19162;48.254;11.454;2023-05-07T09:05:09;6.22;;;5.70;;
32812;SDS011;19162;48.254;11.454;2023-05-07T09:08:10;6.20;;;5.70;;
32812;SDS011;19162;48.254;11.454;2023-05-07T09:11:14;6.20;;;5.80;;
32812;SDS011;19162;48.254;11.454;2023-05-07T09:14:14;6.15;;;4.90;;
32812;SDS011;19162;48.254;11.454;2023-05-07T09:17:17;6.05;;;5.65;;
32812;SDS011;19162;48.254;11.454;2023-05-07T09:20:17;6.93;;;6.22;;
32812;SDS011;19162;48.254;11.454;2023-05-07T09:23:18;7.32;;;6.82;;
32812;SDS011;19162;48.254;11.454;2023-05-07T09:26:18;7.17;;;6.57;;
32812;SDS011;19162;48.254;11.454;2023-05-07T09:29:20;7.07;;;6.50;;
32812;SDS011;19162;48.254;11.454;2023-05-07T09:32:21;5.80;;;5.40;;
32812;SDS011;19162;48.254;11.454;2023-05-07T09:35:21;7.90;;;7.30;;
32812;SDS011;19162;48.254;11.454;2023-05-07T09:41:24;5.95;;;5.40;;
32812;SDS011;19162;48.254;11.454;2023-05-07T09:44:24;6.50;;;6.00;;
32812;SDS011;19162;48.254;11.454;2023-05-07T09:47:24;4.80;;;4.40;;
32812;SDS011;19162;48.254;11.454;2023-05-07T09:50:29;5.93;;;5.40;;
32812;SDS011;19162;48.254;11.454;2023-05-07T09:53:29;6.40;;;5.90;;
32812;SDS011;19162;48.254;11.454;2023-05-07T09:56:30;5.22;;;4.72;;
32812;SDS011;19162;48.254;11.454;2023-05-07T09:59:31;4.90;;;4.53;;
32812;SDS011;19162;48.254;11.454;2023-05-07T10:02:32;5.57;;;5.07;;
32812;SDS011;19162;48.254;11.454;2023-05-07T10:08:35;4.80;;;4.10;;
32812;SDS011;19162;48.254;11.454;2023-05-07T10:11:36;3.05;;;2.83;;
32812;SDS011;19162;48.254;11.454;2023-05-07T10:14:36;4.18;;;3.83;;
32812;SDS011;19162;48.254;11.454;2023-05-07T10:17:37;4.95;;;4.35;;
32812;SDS011;19162;48.254;11.454;2023-05-07T10:20:37;5.10;;;4.75;;
32812;SDS011;19162;48.254;11.454;2023-05-07T10:23:38;6.03;;;5.53;;
32812;SDS011;19162;48.254;11.454;2023-05-07T10:26:40;4.78;;;4.28;;
32812;SDS011;19162;48.254;11.454;2023-05-07T10:32:51;4.57;;;3.58;;
32812;SDS011;19162;48.254;11.454;2023-05-07T10:35:55;3.75;;;3.38;;
32812;SDS011;19162;48.254;11.454;2023-05-07T10:38:57;3.58;;;2.35;;
32812;SDS011;19162;48.254;11.454;2023-05-07T10:42:06;2.50;;;2.10;;
32812;SDS011;19162;48.254;11.454;2023-05-07T10:45:13;2.92;;;2.72;;
32812;SDS011;19162;48.254;11.454;2023-05-07T10:48:16;3.30;;;2.58;;
32812;SDS011;19162;48.254;11.454;2023-05-07T10:51:21;3.25;;;2.40;;
32812;SDS011;19162;48.254;11.454;2023-05-07T10:54:21;3.65;;;3.00;;
32812;SDS011;19162;48.254;11.454;2023-05-07T11:03:29;2.90;;;2.63;;
32812;SDS011;19162;48.254;11.454;2023-05-07T11:06:29;2.87;;;2.67;;
32812;SDS011;19162;48.254;11.454;2023-05-07T11:12:51;2.42;;;2.22;;
32812;SDS011;19162;48.254;11.454;2023-05-07T11:15:51;2.70;;;2.50;;
32812;SDS011;19162;48.254;11.454;2023-05-07T11:18:53;6.40;;;5.80;;
32812;SDS011;19162;48.254;11.454;2023-05-07T11:21:53;2.83;;;2.25;;
32812;SDS011;19162;48.254;11.454;2023-05-07T11:24:54;2.55;;;2.35;;
32812;SDS011;19162;48.254;11.454;2023-05-07T11:27:54;2.47;;;2.27;;
32812;SDS011;19162;48.254;11.454;2023-05-07T11:30:55;5.93;;;2.50;;
32812;SDS011;19162;48.254;11.454;2023-05-07T11:33:56;2.20;;;2.00;;
32812;SDS011;19162;48.254;11.454;2023-05-07T11:36:57;1.92;;;1.73;;
32812;SDS011;19162;48.254;11.454;2023-05-07T11:40:04;4.13;;;2.35;;
32812;SDS011;19162;48.254;11.454;2023-05-07T11:43:12;4.72;;;2.40;;
32812;SDS011;19162;48.254;11.454;2023-05-07T11:46:12;2.92;;;2.63;;
32812;SDS011;19162;48.254;11.454;2023-05-07T11:49:14;2.63;;;2.38;;
32812;SDS011;19162;48.254;11.454;2023-05-07T11:52:14;2.17;;;2.07;;
32812;SDS011;19162;48.254;11.454;2023-05-07T11:55:17;2.47;;;2.28;;
32812;SDS011;19162;48.254;11.454;2023-05-07T12:01:18;3.33;;;2.83;;
32812;SDS011;19162;48.254;11.454;2023-05-07T12:04:21;2.83;;;2.63;;
32812;SDS011;19162;48.254;11.454;2023-05-07T12:07:21;2.92;;;2.40;;
32812;SDS011;19162;48.254;11.454;2023-05-07T12:10:23;2.43;;;1.87;;
32812;SDS011;19162;48.254;11.454;2023-05-07T12:13:25;2.88;;;2.25;;
32812;SDS011;19162;48.254;11.454;2023-05-07T12:16:25;2.42;;;2.08;;
32812;SDS011;19162;48.254;11.454;2023-05-07T12:19:26;2.40;;;2.20;;
32812;SDS011;19162;48.254;11.454;2023-05-07T12:22:26;2.97;;;2.27;;
32812;SDS011;19162;48.254;11.454;2023-05-07T12:25:29;2.73;;;2.53;;
32812;SDS011;19162;48.254;11.454;2023-05-07T12:28:29;2.70;;;2.47;;
32812;SDS011;19162;48.254;11.454;2023-05-07T12:31:30;2.40;;;2.20;;
32812;SDS011;19162;48.254;11.454;2023-05-07T12:34:31;2.92;;;2.00;;
32812;SDS011;19162;48.254;11.454;2023-05-07T12:37:31;2.92;;;2.03;;
32812;SDS011;19162;48.254;11.454;2023-05-07T12:40:35;3.67;;;2.10;;
32812;SDS011;19162;48.254;11.454;2023-05-07T12:43:35;2.25;;;1.75;;
32812;SDS011;19162;48.254;11.454;2023-05-07T12:46:38;3.13;;;1.90;;
32812;SDS011;19162;48.254;11.454;2023-05-07T12:49:38;3.20;;;2.08;;
32812;SDS011;19162;48.254;11.454;2023-05-07T12:52:40;2.83;;;2.17;;
32812;SDS011;19162;48.254;11.454;2023-05-07T12:55:44;1.90;;;1.80;;
32812;SDS011;19162;48.254;11.454;2023-05-07T12:58:45;2.40;;;2.20;;
32812;SDS011;19162;48.254;11.454;2023-05-07T13:01:45;2.20;;;2.00;;
32812;SDS011;19162;48.254;11.454;2023-05-07T13:04:45;2.85;;;2.40;;
32812;SDS011;19162;48.254;11.454;2023-05-07T13:07:52;2.37;;;2.13;;
32812;SDS011;19162;48.254;11.454;2023-05-07T13:10:53;2.45;;;2.25;;
32812;SDS011;19162;48.254;11.454;2023-05-07T13:13:53;3.88;;;2.40;;
32812;SDS011;19162;48.254;11.454;2023-05-07T13:16:53;3.95;;;2.42;;
32812;SDS011;19162;48.254;11.454;2023-05-07T13:19:54;3.23;;;2.50;;
32812;SDS011;19162;48.254;11.454;2023-05-07T13:22:54;3.33;;;2.33;;
32812;SDS011;19162;48.254;11.454;2023-05-07T13:25:54;5.20;;;3.03;;
32812;SDS011;19162;48.254;11.454;2023-05-07T13:28:55;2.85;;;2.65;;
32812;SDS011;19162;48.254;11.454;2023-05-07T13:31:56;3.03;;;2.83;;
32812;SDS011;19162;48.254;11.454;2023-05-07T13:34:56;3.67;;;2.30;;
32812;SDS011;19162;48.254;11.454;2023-05-07T13:37:57;3.28;;;2.58;;
32812;SDS011;19162;48.254;11.454;2023-05-07T13:40:57;3.10;;;2.30;;
32812;SDS011;19162;48.254;11.454;2023-05-07T13:43:57;3.00;;;2.53;;
32812;SDS011;19162;48.254;11.454;2023-05-07T13:46:57;2.50;;;2.30;;
32812;SDS011;19162;48.254;11.454;2023-05-07T13:49:57;3.00;;;2.67;;
32812;SDS011;19162;48.254;11.454;2023-05-07T13:52:58;3.37;;;2.90;;
32812;SDS011;19162;48.254;11.454;2023-05-07T13:55:58;2.53;;;2.33;;
32812;SDS011;19162;48.254;11.454;2023-05-07T13:58:58;3.75;;;2.40;;
32812;SDS011;19162;48.254;11.454;2023-05-07T14:01:58;2.88;;;2.67;;
32812;SDS011;19162;48.254;11.454;2023-05-07T14:04:59;4.30;;;2.50;;
32812;SDS011;19162;48.254;11.454;2023-05-07T14:07:59;2.75;;;2.63;;
32812;SDS011;19162;48.254;11.454;2023-05-07T14:11:00;2.77;;;2.57;;
32812;SDS011;19162;48.254;11.454;2023-05-07T14:14:00;2.60;;;2.30;;
32812;SDS011;19162;48.254;11.454;2023-05-07T14:17:00;2.47;;;2.27;;
32812;SDS011;19162;48.254;11.454;2023-05-07T14:20:00;2.50;;;2.22;;
32812;SDS011;19162;48.254;11.454;2023-05-07T14:23:01;2.80;;;2.60;;
32812;SDS011;19162;48.254;11.454;2023-05-07T14:26:01;2.40;;;2.15;;
32812;SDS011;19162;48.254;11.454;2023-05-07T14:29:01;5.03;;;3.27;;
32812;SDS011;19162;48.254;11.454;2023-05-07T14:32:02;2.72;;;2.53;;
32812;SDS011;19162;48.254;11.454;2023-05-07T14:35:03;2.47;;;2.28;;
32812;SDS011;19162;48.254;11.454;2023-05-07T14:38:03;4.20;;;3.63;;
32812;SDS011;19162;48.254;11.454;2023-05-07T14:41:03;3.78;;;2.33;;
32812;SDS011;19162;48.254;11.454;2023-05-07T14:44:03;2.63;;;2.20;;
32812;SDS011;19162;48.254;11.454;2023-05-07T14:47:04;3.53;;;2.20;;
32812;SDS011;19162;48.254;11.454;2023-05-07T14:50:04;3.53;;;1.90;;
32812;SDS011;19162;48.254;11.454;2023-05-07T14:53:04;2.33;;;2.00;;
32812;SDS011;19162;48.254;11.454;2023-05-07T14:56:05;3.87;;;2.50;;
32812;SDS011;19162;48.254;11.454;2023-05-07T14:59:05;2.03;;;1.80;;
32812;SDS011;19162;48.254;11.454;2023-05-07T15:02:06;2.38;;;2.17;;
32812;SDS011;19162;48.254;11.454;2023-05-07T15:05:07;6.38;;;3.00;;
32812;SDS011;19162;48.254;11.454;2023-05-07T15:08:07;3.03;;;2.73;;
32812;SDS011;19162;48.254;11.454;2023-05-07T15:11:08;2.47;;;2.27;;
32812;SDS011;19162;48.254;11.454;2023-05-07T15:14:08;7.05;;;6.35;;
32812;SDS011;19162;48.254;11.454;2023-05-07T15:17:08;3.72;;;2.70;;
32812;SDS011;19162;48.254;11.454;2023-05-07T15:20:08;3.78;;;3.15;;
32812;SDS011;19162;48.254;11.454;2023-05-07T15:23:09;2.33;;;2.13;;
32812;SDS011;19162;48.254;11.454;2023-05-07T15:26:13;3.35;;;2.63;;
32812;SDS011;19162;48.254;11.454;2023-05-07T15:29:14;3.10;;;2.80;;
32812;SDS011;19162;48.254;11.454;2023-05-07T15:32:14;1.67;;;1.57;;
32812;SDS011;19162;48.254;11.454;2023-05-07T15:35:14;1.85;;;1.48;;
32812;SDS011;19162;48.254;11.454;2023-05-07T15:38:15;2.00;;;1.70;;
32812;SDS011;19162;48.254;11.454;2023-05-07T15:41:15;1.92;;;1.83;;
32812;SDS011;19162;48.254;11.454;2023-05-07T15:44:15;2.10;;;1.90;;
32812;SDS011;19162;48.254;11.454;2023-05-07T15:47:16;2.25;;;2.05;;
32812;SDS011;19162;48.254;11.454;2023-05-07T15:50:16;1.93;;;1.83;;
32812;SDS011;19162;48.254;11.454;2023-05-07T15:53:16;2.07;;;1.73;;
32812;SDS011;19162;48.254;11.454;2023-05-07T15:56:16;2.30;;;2.00;;
32812;SDS011;19162;48.254;11.454;2023-05-07T15:59:16;4.68;;;2.13;;
32812;SDS011;19162;48.254;11.454;2023-05-07T16:02:17;2.50;;;2.00;;
32812;SDS011;19162;48.254;11.454;2023-05-07T16:05:17;2.15;;;1.77;;
32812;SDS011;19162;48.254;11.454;2023-05-07T16:08:17;3.50;;;2.07;;
32812;SDS011;19162;48.254;11.454;2023-05-07T16:11:17;2.42;;;1.60;;
32812;SDS011;19162;48.254;11.454;2023-05-07T16:14:17;4.13;;;2.67;;
32812;SDS011;19162;48.254;11.454;2023-05-07T16:17:18;3.20;;;2.87;;
32812;SDS011;19162;48.254;11.454;2023-05-07T16:20:18;3.10;;;2.30;;
32812;SDS011;19162;48.254;11.454;2023-05-07T16:23:20;4.05;;;2.13;;
32812;SDS011;19162;48.254;11.454;2023-05-07T16:26:21;4.35;;;2.00;;
32812;SDS011;19162;48.254;11.454;2023-05-07T16:29:21;2.35;;;2.15;;
32812;SDS011;19162;48.254;11.454;2023-05-07T16:32:22;3.05;;;2.25;;
32812;SDS011;19162;48.254;11.454;2023-05-07T16:35:22;2.93;;;1.83;;
32812;SDS011;19162;48.254;11.454;2023-05-07T16:38:22;2.13;;;1.90;;
32812;SDS011;19162;48.254;11.454;2023-05-07T16:41:22;1.77;;;1.67;;
32812;SDS011;19162;48.254;11.454;2023-05-07T16:44:22;1.67;;;1.57;;
32812;SDS011;19162;48.254;11.454;2023-05-07T16:47:23;3.17;;;2.00;;
32812;SDS011;19162;48.254;11.454;2023-05-07T16:50:23;2.33;;;2.13;;
32812;SDS011;19162;48.254;11.454;2023-05-07T16:53:23;4.60;;;2.15;;
32812;SDS011;19162;48.254;11.454;2023-05-07T16:56:23;1.95;;;1.77;;
32812;SDS011;19162;48.254;11.454;2023-05-07T16:59:25;2.80;;;2.60;;
32812;SDS011;19162;48.254;11.454;2023-05-07T17:02:25;2.97;;;2.77;;
32812;SDS011;19162;48.254;11.454;2023-05-07T17:05:25;9.73;;;8.80;;
32812;SDS011;19162;48.254;11.454;2023-05-07T17:08:25;4.57;;;4.17;;
32812;SDS011;19162;48.254;11.454;2023-05-07T17:11:26;9.47;;;8.57;;
32812;SDS011;19162;48.254;11.454;2023-05-07T17:14:30;3.10;;;2.90;;
32812;SDS011;19162;48.254;11.454;2023-05-07T17:17:30;2.83;;;2.45;;
32812;SDS011;19162;48.254;11.454;2023-05-07T17:20:30;2.43;;;1.90;;
32812;SDS011;19162;48.254;11.454;2023-05-07T17:23:30;3.63;;;2.20;;
32812;SDS011;19162;48.254;11.454;2023-05-07T17:26:30;1.70;;;1.60;;
32812;SDS011;19162;48.254;11.454;2023-05-07T17:32:33;2.67;;;1.70;;
32812;SDS011;19162;48.254;11.454;2023-05-07T17:35:34;1.70;;;1.60;;
32812;SDS011;19162;48.254;11.454;2023-05-07T17:38:34;2.35;;;1.52;;
32812;SDS011;19162;48.254;11.454;2023-05-07T17:41:35;2.03;;;1.67;;
32812;SDS011;19162;48.254;11.454;2023-05-07T17:44:35;1.83;;;1.60;;
32812;SDS011;19162;48.254;11.454;2023-05-07T17:47:35;1.95;;;1.80;;
32812;SDS011;19162;48.254;11.454;2023-05-07T17:50:35;2.28;;;2.05;;
32812;SDS011;19162;48.254;11.454;2023-05-07T17:53:36;3.38;;;2.38;;
32812;SDS011;19162;48.254;11.454;2023-05-07T17:56:36;1.63;;;1.53;;
32812;SDS011;19162;48.254;11.454;2023-05-07T17:59:36;2.95;;;1.42;;
32812;SDS011;19162;48.254;11.454;2023-05-07T18:02:38;2.05;;;1.85;;
32812;SDS011;19162;48.254;11.454;2023-05-07T18:05:39;1.60;;;1.50;;
32812;SDS011;19162;48.254;11.454;2023-05-07T18:08:39;2.70;;;1.77;;
32812;SDS011;19162;48.254;11.454;2023-05-07T18:11:39;2.55;;;1.50;;
32812;SDS011;19162;48.254;11.454;2023-05-07T18:14:40;2.33;;;1.83;;